createdAt,value
2023-05-05T00:01:08.425Z,81.83
2023-05-05T00:03:35.071Z,82.23
2023-05-05T00:06:02.034Z,82.57
2023-05-05T00:08:28.645Z,83.23
2023-05-05T00:10:55.158Z,83.46
2023-05-05T00:13:21.939Z,83.24
2023-05-05T00:15:50.648Z,83.56
2023-05-05T00:18:18.459Z,84.03
2023-05-05T00:20:45.636Z,83.96
2023-05-05T00:23:12.180Z,83.89
2023-05-05T00:25:38.612Z,83.71
2023-05-05T00:28:05.369Z,82.98
2023-05-05T00:30:31.756Z,82.68
2023-05-05T00:32:58.330Z,82.31
2023-05-05T00:35:24.770Z,82.26
2023-05-05T00:37:51.084Z,82.27
2023-05-05T00:40:17.509Z,82.28
2023-05-05T00:42:46.070Z,82.53
2023-05-05T00:45:14.195Z,82.90
2023-05-05T00:47:47.590Z,83.50
2023-05-05T00:50:22.336Z,83.83
2023-05-05T00:52:49.435Z,83.43
2023-05-05T00:55:16.070Z,83.59
2023-05-05T00:57:43.244Z,83.85
2023-05-05T01:00:10.409Z,84.15
2023-05-05T01:02:37.031Z,84.73
2023-05-05T01:05:03.942Z,85.43
2023-05-05T01:07:47.920Z,85.35
2023-05-05T01:10:25.110Z,85.60
2023-05-05T01:12:57.108Z,85.82
2023-05-05T01:15:37.658Z,86.11
2023-05-05T01:18:29.462Z,86.16
2023-05-05T01:21:06.961Z,86.09
2023-05-05T01:23:54.902Z,86.29
2023-05-05T01:26:45.864Z,86.64
2023-05-05T01:29:50.629Z,87.13
2023-05-05T01:32:25.478Z,87.05
2023-05-05T01:35:29.320Z,86.70
2023-05-05T01:38:06.017Z,86.70
2023-05-05T01:40:40.910Z,86.63
2023-05-05T01:43:10.242Z,86.23
2023-05-05T01:45:39.860Z,86.35
2023-05-05T01:48:08.077Z,86.80
2023-05-05T01:50:35.787Z,86.94
2023-05-05T01:53:04.665Z,86.81
2023-05-05T01:55:33.357Z,86.88
2023-05-05T01:58:02.181Z,87.39
2023-05-05T02:00:28.954Z,87.31
2023-05-05T02:02:56.603Z,87.44
2023-05-05T02:05:24.656Z,87.15
2023-05-05T02:07:53.512Z,87.53
2023-05-05T02:10:20.268Z,87.46
2023-05-05T02:12:47.679Z,87.99
2023-05-05T02:15:16.295Z,87.47
2023-05-05T02:17:43.590Z,86.44
2023-05-05T02:20:14.665Z,86.30
2023-05-05T02:22:41.265Z,86.39
2023-05-05T02:25:09.216Z,86.62
2023-05-05T02:27:37.195Z,86.69
2023-05-05T02:30:08.780Z,86.65
2023-05-05T02:32:40.216Z,87.52
2023-05-05T02:35:14.935Z,87.95
2023-05-05T02:37:48.522Z,87.61
2023-05-05T02:40:22.771Z,87.91
2023-05-05T02:42:51.339Z,87.87
2023-05-05T02:45:21.469Z,87.78
2023-05-05T02:47:47.955Z,88.02
2023-05-05T02:50:14.841Z,87.91
2023-05-05T02:52:41.788Z,88.13
2023-05-05T02:55:08.636Z,88.05
2023-05-05T02:57:42.528Z,88.04
2023-05-05T03:00:23.163Z,88.34
2023-05-05T03:03:18.521Z,89.02
2023-05-05T03:05:53.803Z,88.39
2023-05-05T03:08:50.497Z,89.00
2023-05-05T03:11:26.163Z,88.61
2023-05-05T03:13:59.396Z,88.39
2023-05-05T03:16:27.825Z,88.91
2023-05-05T03:18:57.020Z,88.83
2023-05-05T03:21:23.673Z,88.55
2023-05-05T03:23:50.344Z,88.19
2023-05-05T03:26:17.673Z,88.38
2023-05-05T03:28:44.174Z,88.15
2023-05-05T03:31:11.613Z,88.23
2023-05-05T03:33:37.929Z,88.12
2023-05-05T03:36:04.536Z,88.36
2023-05-05T03:38:30.832Z,88.01
2023-05-05T03:40:57.349Z,88.21
2023-05-05T03:43:23.635Z,88.64
2023-05-05T03:45:50.038Z,88.78
2023-05-05T03:48:16.420Z,89.01
2023-05-05T03:50:45.309Z,88.79
2023-05-05T03:53:11.755Z,89.54
2023-05-05T03:55:38.113Z,89.19
2023-05-05T03:58:04.408Z,89.06
2023-05-05T04:00:30.782Z,89.06
2023-05-05T04:02:57.509Z,88.99
2023-05-05T04:05:23.937Z,88.89
2023-05-05T04:07:50.346Z,89.11
2023-05-05T04:10:16.859Z,89.28
2023-05-05T04:12:43.570Z,89.60
2023-05-05T04:15:10.370Z,89.49
2023-05-05T04:17:36.661Z,89.02
2023-05-05T04:20:03.476Z,89.23
2023-05-05T04:22:29.804Z,88.99
2023-05-05T04:24:56.176Z,89.28
2023-05-05T04:27:22.565Z,90.30
2023-05-05T04:29:48.934Z,90.76
2023-05-05T04:32:15.379Z,91.15
2023-05-05T04:34:41.799Z,90.70
2023-05-05T04:37:08.257Z,91.02
2023-05-05T04:39:35.094Z,90.73
2023-05-05T04:42:01.414Z,90.52
2023-05-05T04:44:27.792Z,90.71
2023-05-05T04:46:54.343Z,90.89
2023-05-05T04:49:20.919Z,90.91
2023-05-05T04:51:47.385Z,90.43
2023-05-05T04:54:13.759Z,90.30
2023-05-05T04:56:40.314Z,90.22
2023-05-05T04:59:06.660Z,90.19
2023-05-05T05:01:33.152Z,90.21
2023-05-05T05:03:59.728Z,90.51
2023-05-05T05:06:26.044Z,89.99
2023-05-05T05:08:53.086Z,89.94
2023-05-05T05:11:19.480Z,89.54
2023-05-05T05:13:45.820Z,88.60
2023-05-05T05:16:12.311Z,88.12
2023-05-05T05:18:38.678Z,88.30
2023-05-05T05:21:05.197Z,88.30
2023-05-05T05:23:31.628Z,88.24
2023-05-05T05:25:58.148Z,88.21
2023-05-05T05:28:24.545Z,87.85
2023-05-05T05:30:51.105Z,87.54
2023-05-05T05:33:17.431Z,87.40
2023-05-05T05:35:43.799Z,87.09
2023-05-05T05:38:10.944Z,86.83
2023-05-05T05:40:37.762Z,87.30
2023-05-05T05:43:04.094Z,87.43
2023-05-05T05:45:30.598Z,85.74
2023-05-05T05:47:57.114Z,85.65
2023-05-05T05:50:23.532Z,86.45
2023-05-05T05:52:50.066Z,86.77
2023-05-05T05:55:16.535Z,86.27
2023-05-05T05:57:43.223Z,85.40
2023-05-05T06:00:10.197Z,85.73
2023-05-05T06:02:36.820Z,84.93
2023-05-05T06:05:04.020Z,84.77
2023-05-05T06:07:30.526Z,83.48
2023-05-05T06:09:56.862Z,81.59
2023-05-05T06:12:23.361Z,81.17
2023-05-05T06:14:49.652Z,81.21
2023-05-05T06:17:16.077Z,81.70
2023-05-05T06:19:42.610Z,81.53
2023-05-05T06:22:09.452Z,81.48
2023-05-05T06:24:35.956Z,80.90
2023-05-05T06:27:02.309Z,79.97
2023-05-05T06:29:28.882Z,79.04
2023-05-05T06:31:55.822Z,78.67
2023-05-05T06:34:22.224Z,77.32
2023-05-05T06:36:48.644Z,77.32
2023-05-05T06:39:16.199Z,77.55
2023-05-05T06:41:42.658Z,77.54
2023-05-05T06:44:08.979Z,76.55
2023-05-05T06:46:35.917Z,76.30
2023-05-05T06:49:02.258Z,76.31
2023-05-05T06:51:28.948Z,75.95
2023-05-05T06:53:55.309Z,74.94
2023-05-05T06:56:21.880Z,75.28
2023-05-05T06:58:48.531Z,75.62
2023-05-05T07:01:14.856Z,75.59
2023-05-05T07:03:42.683Z,75.51
2023-05-05T07:06:09.134Z,75.39
2023-05-05T07:08:35.785Z,75.26
2023-05-05T07:11:02.097Z,74.63
2023-05-05T07:13:28.797Z,74.10
2023-05-05T07:15:57.403Z,73.53
2023-05-05T07:18:23.727Z,72.59
2023-05-05T07:20:50.409Z,72.42
2023-05-05T07:23:16.767Z,72.29
2023-05-05T07:25:43.131Z,71.94
2023-05-05T07:28:09.924Z,71.80
2023-05-05T07:30:36.252Z,70.59
2023-05-05T07:33:02.934Z,70.15
2023-05-05T07:35:29.868Z,70.69
2023-05-05T07:37:56.311Z,69.45
2023-05-05T07:40:23.353Z,68.41
2023-05-05T07:42:49.746Z,68.51
2023-05-05T07:45:16.278Z,67.74
2023-05-05T07:47:42.982Z,67.74
2023-05-05T07:50:10.062Z,67.17
2023-05-05T07:52:45.387Z,67.23
2023-05-05T07:55:14.658Z,66.38
2023-05-05T07:57:41.272Z,65.61
2023-05-05T08:00:08.282Z,65.96
2023-05-05T08:02:35.021Z,64.78
2023-05-05T08:05:01.743Z,64.77
2023-05-05T08:07:31.158Z,62.53
2023-05-05T08:09:57.464Z,61.41
2023-05-05T08:12:23.891Z,61.14
2023-05-05T08:14:51.334Z,61.60
2023-05-05T08:17:18.483Z,57.61
2023-05-05T08:19:45.171Z,55.95
2023-05-05T08:22:12.319Z,55.09
2023-05-05T08:24:38.676Z,54.15
2023-05-05T08:27:04.977Z,53.88
2023-05-05T08:29:31.385Z,54.44
2023-05-05T08:31:57.692Z,52.38
2023-05-05T08:34:24.492Z,54.10
2023-05-05T08:36:51.194Z,54.99
2023-05-05T08:39:18.107Z,51.80
2023-05-05T08:41:44.862Z,48.39
2023-05-05T08:44:11.294Z,49.80
2023-05-05T08:46:39.757Z,50.26
2023-05-05T08:49:13.831Z,50.01
2023-05-05T08:51:43.303Z,46.31
2023-05-05T08:54:17.740Z,41.96
2023-05-05T08:56:46.932Z,43.33
2023-05-05T08:59:14.797Z,42.27
2023-05-05T09:01:42.172Z,40.46
2023-05-05T09:04:09.449Z,37.36
2023-05-05T09:06:36.108Z,38.58
2023-05-05T09:09:02.881Z,36.02
2023-05-05T09:11:29.572Z,37.17
2023-05-05T09:13:57.057Z,36.28
2023-05-05T09:16:23.386Z,37.35
2023-05-05T09:18:49.747Z,37.07
2023-05-05T09:21:23.460Z,36.54
2023-05-05T09:24:09.640Z,37.94
2023-05-05T09:26:42.451Z,37.90
2023-05-05T09:29:09.229Z,38.13
2023-05-05T09:31:37.003Z,37.33
2023-05-05T09:34:15.386Z,38.83
2023-05-05T09:36:46.494Z,39.15
2023-05-05T09:39:20.617Z,39.08
2023-05-05T09:41:47.068Z,37.85
2023-05-05T09:44:14.028Z,37.25
2023-05-05T09:46:51.176Z,37.70
2023-05-05T09:49:22.234Z,38.51
2023-05-05T09:51:48.847Z,38.64
2023-05-05T09:54:22.308Z,39.68
2023-05-05T09:56:48.814Z,40.35
2023-05-05T09:59:16.849Z,40.20
2023-05-05T10:01:43.291Z,41.47
2023-05-05T10:04:23.710Z,42.52
2023-05-05T10:06:50.217Z,43.69
2023-05-05T10:09:16.911Z,43.14
2023-05-05T10:11:45.247Z,43.17
2023-05-05T10:14:15.489Z,43.22
2023-05-05T10:16:50.412Z,43.65
2023-05-05T10:19:19.552Z,42.80
2023-05-05T10:21:59.315Z,41.17
2023-05-05T10:24:37.512Z,39.50
2023-05-05T10:27:12.688Z,39.54
2023-05-05T10:30:08.447Z,39.42
2023-05-05T10:32:57.302Z,36.68
2023-05-05T10:35:35.338Z,37.78
2023-05-05T10:38:03.578Z,39.21
2023-05-05T10:40:30.842Z,38.42
2023-05-05T10:42:58.305Z,38.29
2023-05-05T10:45:24.982Z,38.66
2023-05-05T10:47:52.935Z,39.96
2023-05-05T10:50:39.064Z,40.54
2023-05-05T10:53:15.547Z,40.08
2023-05-05T10:55:49.858Z,40.33
2023-05-05T10:58:36.594Z,41.44
2023-05-05T11:01:08.692Z,44.01
2023-05-05T11:03:36.703Z,43.43
2023-05-05T11:06:06.014Z,42.66
2023-05-05T11:08:33.078Z,42.20
2023-05-05T11:11:00.051Z,42.66
2023-05-05T11:13:27.025Z,44.64
2023-05-05T11:15:56.015Z,46.61
2023-05-05T11:18:39.967Z,46.13
2023-05-05T11:21:14.506Z,46.46
2023-05-05T11:23:46.715Z,47.18
2023-05-05T11:26:14.539Z,48.82
2023-05-05T11:28:59.108Z,48.52
2023-05-05T11:31:25.568Z,48.88
2023-05-05T11:33:52.400Z,46.27
2023-05-05T11:36:20.316Z,48.66
2023-05-05T11:39:06.653Z,47.09
2023-05-05T11:41:32.898Z,45.77
2023-05-05T11:44:13.429Z,45.81
2023-05-05T11:47:02.732Z,46.77
2023-05-05T11:49:32.234Z,47.03
2023-05-05T11:52:01.475Z,46.75
2023-05-05T11:54:29.180Z,47.21
2023-05-05T11:56:58.347Z,46.49
2023-05-05T11:59:25.170Z,46.65
2023-05-05T12:01:52.299Z,47.30
2023-05-05T12:04:19.762Z,48.37
2023-05-05T12:06:46.615Z,49.37
2023-05-05T12:09:21.469Z,49.30
2023-05-05T12:11:58.425Z,47.48
2023-05-05T12:14:25.455Z,48.34
2023-05-05T12:17:07.517Z,49.25
2023-05-05T12:19:35.612Z,48.23
2023-05-05T12:22:03.516Z,47.65
2023-05-05T12:24:30.272Z,48.20
2023-05-05T12:27:09.914Z,47.47
2023-05-05T12:29:36.483Z,47.74
2023-05-05T12:32:04.268Z,46.78
2023-05-05T12:34:31.927Z,47.04
2023-05-05T12:36:58.434Z,46.69
2023-05-05T12:39:35.311Z,47.30
2023-05-05T12:42:03.350Z,48.04
2023-05-05T12:44:40.108Z,48.67
2023-05-05T12:47:07.648Z,49.06
2023-05-05T12:49:51.196Z,48.72
2023-05-05T12:52:21.250Z,48.93
2023-05-05T12:54:57.672Z,48.85
2023-05-05T12:57:25.753Z,48.36
2023-05-05T12:59:53.487Z,48.49
2023-05-05T13:02:20.887Z,48.04
2023-05-05T13:04:52.229Z,47.37
2023-05-05T13:07:20.725Z,47.88
2023-05-05T13:09:48.903Z,47.17
2023-05-05T13:12:18.655Z,47.89
2023-05-05T13:14:45.650Z,48.17
2023-05-05T13:17:13.026Z,48.52
2023-05-05T13:19:40.233Z,47.86
2023-05-05T13:22:06.743Z,48.47
2023-05-05T13:24:46.574Z,48.86
2023-05-05T13:27:17.676Z,47.93
2023-05-05T13:29:44.043Z,47.12
2023-05-05T13:32:10.346Z,47.75
2023-05-05T13:34:36.760Z,46.40
2023-05-05T13:37:03.166Z,46.73
2023-05-05T13:39:29.501Z,46.88
2023-05-05T13:41:55.841Z,46.15
2023-05-05T13:44:22.214Z,46.45
2023-05-05T13:46:48.697Z,45.95
2023-05-05T13:49:15.706Z,46.07
2023-05-05T13:51:42.373Z,46.98
2023-05-05T13:54:08.900Z,47.35
2023-05-05T13:56:35.530Z,47.62
2023-05-05T13:59:01.836Z,47.52
2023-05-05T14:01:28.516Z,46.67
2023-05-05T14:03:57.285Z,47.06
2023-05-05T14:06:24.734Z,48.64
2023-05-05T14:08:51.207Z,54.17
2023-05-05T14:11:17.575Z,67.05
2023-05-05T14:13:44.009Z,75.94
2023-05-05T14:16:11.444Z,76.94
2023-05-05T14:18:37.754Z,77.72
2023-05-05T14:21:04.167Z,77.50
2023-05-05T14:23:30.792Z,71.81
2023-05-05T14:25:57.362Z,74.47
2023-05-05T14:28:23.654Z,77.40
2023-05-05T14:30:49.955Z,77.99
2023-05-05T14:33:16.389Z,83.22
2023-05-05T14:35:42.838Z,82.45
2023-05-05T14:38:09.165Z,83.01
2023-05-05T14:40:35.552Z,83.00
2023-05-05T14:43:01.959Z,83.30
2023-05-05T14:45:28.276Z,84.73
2023-05-05T14:47:55.107Z,85.15
2023-05-05T14:50:21.527Z,85.41
2023-05-05T14:52:47.824Z,87.10
2023-05-05T14:55:14.226Z,89.52
2023-05-05T14:57:40.704Z,89.04
2023-05-05T15:00:09.352Z,90.63
2023-05-05T15:02:35.727Z,85.10
2023-05-05T15:05:02.192Z,83.76
2023-05-05T15:07:28.556Z,87.24
2023-05-05T15:09:55.447Z,85.85
2023-05-05T15:12:22.465Z,82.16
2023-05-05T15:14:49.030Z,81.91
2023-05-05T15:17:15.398Z,80.58
2023-05-05T15:19:42.347Z,80.17
2023-05-05T15:22:08.713Z,79.29
2023-05-05T15:24:35.135Z,78.91
2023-05-05T15:27:01.549Z,78.58
2023-05-05T15:29:28.018Z,78.04
2023-05-05T15:31:54.399Z,77.30
2023-05-05T15:34:20.720Z,76.81
2023-05-05T15:36:47.122Z,77.46
2023-05-05T15:39:13.441Z,77.44
2023-05-05T15:41:39.962Z,79.16
2023-05-05T15:44:06.415Z,79.45
2023-05-05T15:46:32.797Z,78.88
2023-05-05T15:48:59.243Z,78.91
2023-05-05T15:51:25.683Z,78.30
2023-05-05T15:53:52.611Z,77.97
2023-05-05T15:56:19.419Z,77.80
2023-05-05T15:58:46.023Z,77.57
2023-05-05T16:01:12.394Z,78.53
2023-05-05T16:03:38.960Z,78.29
2023-05-05T16:06:05.612Z,77.54
2023-05-05T16:08:32.234Z,78.27
2023-05-05T16:10:58.529Z,79.12
2023-05-05T16:13:24.923Z,78.00
2023-05-05T16:15:51.285Z,76.70
2023-05-05T16:18:17.865Z,77.10
2023-05-05T16:20:44.353Z,76.68
2023-05-05T16:23:10.671Z,76.30
2023-05-05T16:25:37.342Z,76.29
2023-05-05T16:28:03.992Z,76.59
2023-05-05T16:30:30.441Z,76.93
2023-05-05T16:32:56.833Z,77.22
2023-05-05T16:35:23.360Z,77.28
2023-05-05T16:37:49.920Z,77.66
2023-05-05T16:40:16.259Z,78.41
2023-05-05T16:42:44.497Z,78.49
2023-05-05T16:45:11.538Z,76.71
2023-05-05T16:47:38.287Z,77.35
2023-05-05T16:50:05.275Z,78.64
2023-05-05T16:52:31.580Z,79.83
2023-05-05T16:54:57.967Z,79.99
2023-05-05T16:57:24.552Z,80.08
2023-05-05T16:59:51.123Z,78.61
2023-05-05T17:02:17.609Z,77.90
2023-05-05T17:04:43.926Z,79.29
2023-05-05T17:07:10.445Z,77.51
2023-05-05T17:09:36.800Z,77.88
2023-05-05T17:12:03.387Z,77.11
2023-05-05T17:14:30.346Z,76.68
2023-05-05T17:16:56.724Z,76.66
2023-05-05T17:19:23.106Z,78.23
2023-05-05T17:21:49.514Z,79.37
2023-05-05T17:24:16.582Z,78.98
2023-05-05T17:26:43.025Z,79.24
2023-05-05T17:29:10.948Z,80.62
2023-05-05T17:31:39.036Z,81.84
2023-05-05T17:34:05.420Z,81.79
2023-05-05T17:36:31.754Z,81.06
2023-05-05T17:38:58.046Z,81.23
2023-05-05T17:41:24.580Z,81.96
2023-05-05T17:43:51.303Z,83.02
2023-05-05T17:46:17.751Z,84.37
2023-05-05T17:48:44.230Z,84.74
2023-05-05T17:51:10.562Z,85.69
2023-05-05T17:53:36.956Z,85.92
2023-05-05T17:56:03.355Z,85.83
2023-05-05T17:58:29.767Z,86.47
2023-05-05T18:00:56.101Z,86.49
2023-05-05T18:03:22.775Z,86.48
2023-05-05T18:05:49.199Z,86.39
2023-05-05T18:08:15.619Z,87.05
2023-05-05T18:10:42.527Z,88.22
2023-05-05T18:13:09.109Z,88.33
2023-05-05T18:15:35.487Z,88.71
2023-05-05T18:18:01.916Z,89.48
2023-05-05T18:20:28.236Z,90.13
2023-05-05T18:22:54.614Z,91.00
2023-05-05T18:25:21.034Z,93.58
2023-05-05T18:27:47.355Z,92.25
2023-05-05T18:30:13.882Z,93.58
2023-05-05T18:32:40.216Z,94.61
2023-05-05T18:35:07.439Z,94.58
2023-05-05T18:37:34.174Z,94.33
2023-05-05T18:40:00.472Z,94.00
2023-05-05T18:42:26.771Z,93.93
2023-05-05T18:44:53.234Z,93.11
2023-05-05T18:47:19.521Z,92.53
2023-05-05T18:49:46.390Z,93.00
2023-05-05T18:52:13.049Z,93.39
2023-05-05T18:54:39.342Z,93.89
2023-05-05T18:57:05.689Z,94.95
2023-05-05T18:59:32.047Z,94.70
2023-05-05T19:01:58.417Z,94.51
2023-05-05T19:04:31.365Z,93.84
2023-05-05T19:06:58.841Z,94.19
2023-05-05T19:09:25.179Z,94.43
2023-05-05T19:11:51.474Z,93.96
2023-05-05T19:14:18.126Z,94.52
2023-05-05T19:16:44.656Z,95.11
2023-05-05T19:19:11.226Z,97.10
2023-05-05T19:21:37.553Z,99.04
2023-05-05T19:24:04.163Z,100.00
2023-05-05T19:26:30.589Z,100.00
2023-05-05T19:28:56.934Z,99.45
2023-05-05T19:31:23.383Z,100.00
2023-05-05T19:33:49.707Z,100.00
2023-05-05T19:36:16.072Z,100.00
2023-05-05T19:38:42.472Z,100.00
2023-05-05T19:41:08.801Z,100.00
2023-05-05T19:43:35.126Z,100.00
2023-05-05T19:46:01.715Z,100.00
2023-05-05T19:48:28.207Z,100.00
2023-05-05T19:50:54.690Z,100.00
2023-05-05T19:53:20.989Z,100.00
2023-05-05T19:55:47.373Z,100.00
2023-05-05T19:58:13.751Z,100.00
2023-05-05T20:00:40.213Z,100.00
2023-05-05T20:03:06.678Z,100.00
2023-05-05T20:05:33.124Z,100.00
2023-05-05T20:07:59.620Z,100.00
2023-05-05T20:10:26.025Z,100.00
2023-05-05T20:12:52.350Z,100.00
2023-05-05T20:15:20.150Z,100.00
2023-05-05T20:17:47.822Z,100.00
2023-05-05T20:20:20.240Z,100.00
2023-05-05T20:22:47.979Z,100.00
2023-05-05T20:25:15.056Z,100.00
2023-05-05T20:27:42.074Z,100.00
2023-05-05T20:30:11.878Z,100.00
2023-05-05T20:32:38.478Z,100.00
2023-05-05T20:35:05.353Z,100.00
2023-05-05T20:37:31.704Z,100.00
2023-05-05T20:39:58.069Z,100.00
2023-05-05T20:42:24.563Z,100.00
2023-05-05T20:44:51.315Z,100.00
2023-05-05T20:47:17.706Z,100.00
2023-05-05T20:49:44.103Z,100.00
2023-05-05T20:52:10.404Z,100.00
2023-05-05T20:54:36.843Z,100.00
2023-05-05T20:57:03.221Z,100.00
2023-05-05T20:59:29.574Z,100.00
2023-05-05T21:01:59.344Z,100.00
2023-05-05T21:04:25.810Z,100.00
2023-05-05T21:06:52.212Z,100.00
2023-05-05T21:09:18.606Z,100.00
2023-05-05T21:11:44.927Z,100.00
2023-05-05T21:14:11.323Z,100.00
2023-05-05T21:16:38.057Z,100.00
2023-05-05T21:19:04.644Z,100.00
2023-05-05T21:21:31.008Z,100.00
2023-05-05T21:23:57.662Z,100.00
2023-05-05T21:26:24.810Z,100.00
2023-05-05T21:28:51.858Z,100.00
2023-05-05T21:31:22.268Z,100.00
2023-05-05T21:33:49.034Z,100.00
2023-05-05T21:36:15.352Z,100.00
2023-05-05T21:38:41.880Z,100.00
2023-05-05T21:41:08.179Z,100.00
2023-05-05T21:43:34.679Z,100.00
2023-05-05T21:46:03.558Z,100.00
2023-05-05T21:48:29.937Z,100.00
2023-05-05T21:50:56.368Z,100.00
2023-05-05T21:53:23.704Z,100.00
2023-05-05T21:55:50.373Z,100.00
2023-05-05T21:58:17.040Z,100.00
2023-05-05T22:00:43.425Z,100.00
2023-05-05T22:03:10.180Z,100.00
2023-05-05T22:05:36.517Z,100.00
2023-05-05T22:08:03.086Z,100.00
2023-05-05T22:10:29.617Z,100.00
2023-05-05T22:12:56.151Z,100.00
2023-05-05T22:15:22.750Z,100.00
2023-05-05T22:17:49.190Z,100.00
2023-05-05T22:20:15.828Z,100.00
2023-05-05T22:22:42.217Z,100.00
2023-05-05T22:25:09.412Z,100.00
2023-05-05T22:27:36.148Z,100.00
2023-05-05T22:30:02.515Z,100.00
2023-05-05T22:32:29.061Z,100.00
2023-05-05T22:34:55.500Z,100.00
2023-05-05T22:37:22.103Z,100.00
2023-05-05T22:39:48.393Z,100.00
2023-05-05T22:42:14.898Z,100.00
2023-05-05T22:44:41.201Z,100.00
2023-05-05T22:47:07.838Z,100.00
2023-05-05T22:49:34.285Z,100.00
2023-05-05T22:52:00.619Z,100.00
2023-05-05T22:54:26.948Z,100.00
2023-05-05T22:56:53.455Z,100.00
2023-05-05T22:59:19.787Z,100.00
2023-05-05T23:01:46.169Z,100.00
2023-05-05T23:04:12.642Z,100.00
2023-05-05T23:06:39.104Z,100.00
2023-05-05T23:09:05.507Z,100.00
2023-05-05T23:11:31.845Z,100.00
2023-05-05T23:13:58.340Z,100.00
2023-05-05T23:16:24.914Z,100.00
2023-05-05T23:18:51.314Z,100.00
2023-05-05T23:21:17.716Z,100.00
2023-05-05T23:23:44.016Z,100.00
2023-05-05T23:26:10.442Z,100.00
2023-05-05T23:28:36.818Z,100.00
2023-05-05T23:31:03.269Z,100.00
2023-05-05T23:33:29.584Z,100.00
2023-05-05T23:35:56.036Z,100.00
2023-05-05T23:38:22.402Z,100.00
2023-05-05T23:40:49.140Z,100.00
2023-05-05T23:43:15.507Z,100.00
2023-05-05T23:45:41.874Z,100.00
2023-05-05T23:48:08.637Z,100.00
2023-05-05T23:50:35.062Z,100.00
2023-05-05T23:53:01.358Z,100.00
2023-05-05T23:55:27.791Z,100.00
2023-05-05T23:57:54.158Z,100.00
